createdAt,value
2018-04-01T00:01:00.964Z,8.32
2018-04-01T00:02:04.590Z,8.05
2018-04-01T00:03:08.069Z,9.80
2018-04-01T00:04:11.561Z,9.45
2018-04-01T00:05:14.282Z,9.00
2018-04-01T00:06:17.004Z,9.43
2018-04-01T00:07:20.481Z,8.88
2018-04-01T00:08:24.078Z,8.63
2018-04-01T00:09:27.562Z,8.75
2018-04-01T00:10:31.055Z,8.73
2018-04-01T00:11:34.548Z,8.70
2018-04-01T00:12:38.048Z,8.98
2018-04-01T00:13:40.815Z,10.13
2018-04-01T00:14:44.411Z,9.05
2018-04-01T00:15:47.131Z,9.48
2018-04-01T00:16:49.931Z,8.70
2018-04-01T00:17:53.421Z,8.63
2018-04-01T00:18:56.897Z,9.30
2018-04-01T00:19:59.618Z,10.15
2018-04-01T00:21:02.345Z,8.85
2018-04-01T00:22:05.093Z,9.40
2018-04-01T00:23:07.820Z,9.52
2018-04-01T00:24:10.530Z,8.30
2018-04-01T00:25:13.369Z,10.07
2018-04-01T00:26:16.108Z,9.63
2018-04-01T00:27:19.591Z,9.32
2018-04-01T00:28:23.125Z,10.07
2018-04-01T00:29:25.853Z,10.10
2018-04-01T00:30:29.368Z,8.85
2018-04-01T00:31:32.119Z,9.30
2018-04-01T00:32:35.591Z,8.25
2018-04-01T00:33:38.296Z,8.90
2018-04-01T00:34:41.046Z,10.05
2018-04-01T00:35:44.674Z,9.45
2018-04-01T00:36:47.377Z,9.50
2018-04-01T00:37:50.090Z,8.70
2018-04-01T00:38:53.577Z,9.65
2018-04-01T00:39:57.058Z,8.18
2018-04-01T00:41:00.544Z,8.50
2018-04-01T00:42:04.040Z,8.90
2018-04-01T00:43:06.757Z,8.75
2018-04-01T00:44:09.493Z,8.70
2018-04-01T00:45:12.520Z,8.35
2018-04-01T00:46:15.320Z,8.57
2018-04-01T00:47:18.821Z,9.82
2018-04-01T00:48:22.325Z,9.20
2018-04-01T00:49:25.040Z,9.00
2018-04-01T00:50:27.759Z,8.65
2018-04-01T00:51:31.248Z,8.32
2018-04-01T00:52:34.768Z,8.57
2018-04-01T00:53:37.460Z,8.48
2018-04-01T00:54:40.177Z,8.30
2018-04-01T00:55:43.724Z,8.10
2018-04-01T00:56:46.434Z,9.15
2018-04-01T00:57:49.921Z,9.50
2018-04-01T00:58:53.420Z,9.55
2018-04-01T00:59:56.142Z,10.10
2018-04-01T01:00:58.876Z,8.55
2018-04-01T01:02:01.627Z,8.80
2018-04-01T01:03:04.308Z,8.75
2018-04-01T01:04:07.063Z,8.68
2018-04-01T01:05:10.619Z,8.35
2018-04-01T01:06:13.314Z,8.32
2018-04-01T01:07:16.820Z,8.02
2018-04-01T01:08:20.324Z,8.75
2018-04-01T01:09:23.896Z,8.70
2018-04-01T01:10:27.392Z,8.10
2018-04-01T01:11:30.099Z,8.80
2018-04-01T01:12:32.835Z,9.13
2018-04-01T01:13:35.564Z,7.68
2018-04-01T01:14:38.271Z,7.53
2018-04-01T01:15:41.001Z,7.95
2018-04-01T01:16:43.724Z,7.65
2018-04-01T01:17:46.481Z,8.52
2018-04-01T01:18:49.957Z,9.05
2018-04-01T01:19:53.436Z,7.70
2018-04-01T01:20:56.212Z,8.48
2018-04-01T01:21:58.957Z,8.80
2018-04-01T01:23:01.646Z,7.97
2018-04-01T01:24:04.367Z,7.85
2018-04-01T01:25:07.069Z,7.65
2018-04-01T01:26:09.793Z,7.78
2018-04-01T01:27:12.551Z,7.22
2018-04-01T01:28:15.258Z,8.82
2018-04-01T01:29:17.969Z,7.82
2018-04-01T01:30:20.695Z,7.93
2018-04-01T01:31:23.396Z,9.30
2018-04-01T01:32:27.626Z,7.57
2018-04-01T01:33:31.109Z,9.10
2018-04-01T01:34:34.623Z,8.25
2018-04-01T01:35:38.095Z,7.60
2018-04-01T01:36:41.587Z,7.55
2018-04-01T01:37:45.089Z,7.37
2018-04-01T01:38:48.563Z,8.07
2018-04-01T01:39:51.305Z,7.47
2018-04-01T01:40:54.017Z,8.05
2018-04-01T01:41:57.492Z,8.40
2018-04-01T01:43:01.028Z,7.22
2018-04-01T01:44:03.749Z,8.10
2018-04-01T01:45:07.229Z,8.35
2018-04-01T01:46:09.942Z,6.93
2018-04-01T01:47:12.672Z,9.05
2018-04-01T01:48:15.373Z,7.72
2018-04-01T01:49:18.105Z,8.70
2018-04-01T01:50:20.821Z,8.35
2018-04-01T01:51:23.540Z,9.00
2018-04-01T01:52:26.260Z,8.38
2018-04-01T01:53:28.976Z,8.07
2018-04-01T01:54:31.703Z,7.85
2018-04-01T01:55:34.480Z,8.93
2018-04-01T01:56:37.177Z,7.95
2018-04-01T01:57:39.919Z,8.60
2018-04-01T01:58:42.643Z,8.05
2018-04-01T01:59:45.440Z,7.53
2018-04-01T02:00:48.938Z,8.05
2018-04-01T02:01:52.434Z,8.15
2018-04-01T02:02:55.150Z,8.30
2018-04-01T02:03:57.876Z,8.52
2018-04-01T02:05:01.359Z,8.30
2018-04-01T02:06:04.965Z,7.82
2018-04-01T02:07:07.677Z,8.20
2018-04-01T02:08:10.403Z,8.35
2018-04-01T02:09:13.879Z,9.80
2018-04-01T02:10:17.348Z,7.62
2018-04-01T02:11:20.834Z,7.32
2018-04-01T02:12:23.552Z,8.40
2018-04-01T02:13:26.313Z,7.95
2018-04-01T02:14:29.025Z,8.10
2018-04-01T02:15:31.762Z,7.25
2018-04-01T02:16:34.513Z,7.62
2018-04-01T02:17:38.006Z,7.57
2018-04-01T02:18:41.488Z,9.00
2018-04-01T02:19:44.981Z,7.95
2018-04-01T02:20:48.471Z,8.02
2018-04-01T02:21:51.961Z,9.00
2018-04-01T02:22:54.680Z,8.40
2018-04-01T02:23:57.412Z,7.35
2018-04-01T02:25:00.125Z,7.30
2018-04-01T02:26:02.849Z,7.25
2018-04-01T02:27:05.569Z,8.15
2018-04-01T02:28:08.291Z,8.35
2018-04-01T02:29:11.024Z,7.50
2018-04-01T02:30:13.846Z,8.20
2018-04-01T02:31:16.601Z,8.05
2018-04-01T02:32:19.324Z,7.90
2018-04-01T02:33:22.146Z,8.43
2018-04-01T02:34:24.844Z,6.97
2018-04-01T02:35:27.552Z,8.20
2018-04-01T02:36:30.272Z,7.45
2018-04-01T02:37:32.987Z,6.87
2018-04-01T02:38:35.737Z,7.28
2018-04-01T02:39:39.239Z,7.43
2018-04-01T02:40:42.023Z,6.47
2018-04-01T02:41:45.494Z,6.70
2018-04-01T02:42:48.346Z,6.40
2018-04-01T02:43:51.072Z,6.30
2018-04-01T02:44:53.777Z,6.50
2018-04-01T02:45:56.511Z,5.95
2018-04-01T02:46:59.227Z,5.43
2018-04-01T02:48:01.981Z,5.05
2018-04-01T02:49:04.676Z,5.47
2018-04-01T02:50:08.178Z,4.68
2018-04-01T02:51:10.905Z,5.32
2018-04-01T02:52:13.639Z,6.18
2018-04-01T02:53:16.379Z,5.05
2018-04-01T02:54:19.071Z,4.25
2018-04-01T02:55:21.808Z,4.25
2018-04-01T02:56:24.530Z,4.00
2018-04-01T02:57:27.289Z,3.78
2018-04-01T02:58:30.013Z,3.45
2018-04-01T02:59:32.747Z,2.90
2018-04-01T03:00:35.456Z,3.37
2018-04-01T03:01:38.173Z,3.10
2018-04-01T03:02:40.900Z,3.37
2018-04-01T03:03:43.616Z,3.20
2018-04-01T03:04:46.335Z,3.22
2018-04-01T03:05:49.983Z,3.37
2018-04-01T03:06:52.702Z,4.03
2018-04-01T03:07:56.194Z,3.90
2018-04-01T03:08:58.997Z,3.92
2018-04-01T03:10:02.472Z,5.05
2018-04-01T03:11:06.076Z,4.37
2018-04-01T03:12:09.503Z,4.15
2018-04-01T03:13:12.226Z,4.25
2018-04-01T03:14:15.793Z,3.83
2018-04-01T03:15:19.304Z,4.60
2018-04-01T03:16:22.837Z,4.62
2018-04-01T03:17:25.543Z,3.72
2018-04-01T03:18:28.277Z,4.57
2018-04-01T03:19:30.993Z,3.97
2018-04-01T03:20:33.709Z,4.10
2018-04-01T03:21:36.426Z,4.55
2018-04-01T03:22:39.141Z,4.10
2018-04-01T03:23:41.950Z,4.70
2018-04-01T03:24:44.668Z,4.82
2018-04-01T03:25:47.807Z,4.95
2018-04-01T03:26:50.536Z,4.55
2018-04-01T03:27:54.257Z,5.10
2018-04-01T03:28:56.943Z,3.92
2018-04-01T03:29:59.655Z,5.03
2018-04-01T03:31:03.148Z,4.32
2018-04-01T03:32:06.628Z,4.95
2018-04-01T03:33:10.131Z,5.00
2018-04-01T03:34:12.849Z,4.53
2018-04-01T03:35:15.603Z,4.97
2018-04-01T03:36:18.316Z,4.35
2018-04-01T03:37:21.029Z,4.85
2018-04-01T03:38:23.755Z,5.40
2018-04-01T03:39:26.476Z,4.72
2018-04-01T03:40:29.209Z,5.45
2018-04-01T03:41:31.920Z,5.57
2018-04-01T03:42:34.648Z,5.47
2018-04-01T03:43:38.142Z,5.65
2018-04-01T03:44:41.640Z,6.32
2018-04-01T03:45:44.362Z,6.68
2018-04-01T03:46:47.088Z,5.68
2018-04-01T03:47:49.869Z,6.22
2018-04-01T03:48:52.591Z,6.65
2018-04-01T03:49:55.384Z,6.05
2018-04-01T03:50:58.894Z,6.07
2018-04-01T03:52:01.612Z,6.95
2018-04-01T03:53:04.330Z,6.05
2018-04-01T03:54:07.132Z,6.93
2018-04-01T03:55:09.844Z,6.50
2018-04-01T03:56:12.566Z,6.03
2018-04-01T03:57:15.284Z,6.60
2018-04-01T03:58:17.995Z,6.53
2018-04-01T03:59:20.700Z,6.85
2018-04-01T04:00:23.429Z,7.10
2018-04-01T04:01:26.147Z,6.80
2018-04-01T04:02:28.874Z,6.45
2018-04-01T04:03:31.592Z,6.87
2018-04-01T04:04:34.585Z,6.45
2018-04-01T04:05:37.276Z,6.20
2018-04-01T04:06:40.748Z,6.80
2018-04-01T04:07:44.249Z,7.25
2018-04-01T04:08:46.968Z,6.75
2018-04-01T04:09:49.866Z,6.80
2018-04-01T04:10:52.586Z,7.03
2018-04-01T04:11:56.071Z,6.25
2018-04-01T04:12:59.587Z,7.10
2018-04-01T04:14:02.340Z,7.12
2018-04-01T04:15:05.075Z,7.10
2018-04-01T04:16:07.796Z,6.95
2018-04-01T04:17:10.539Z,7.32
2018-04-01T04:18:14.013Z,7.72
2018-04-01T04:19:17.514Z,7.97
2018-04-01T04:20:20.998Z,8.32
2018-04-01T04:21:24.484Z,8.13
2018-04-01T04:22:27.972Z,7.43
2018-04-01T04:23:31.452Z,7.20
2018-04-01T04:24:34.244Z,8.70
2018-04-01T04:25:37.024Z,7.90
2018-04-01T04:26:39.747Z,7.72
2018-04-01T04:27:42.456Z,7.37
2018-04-01T04:28:45.244Z,7.40
2018-04-01T04:29:47.963Z,7.55
2018-04-01T04:30:50.684Z,7.22
2018-04-01T04:31:53.448Z,6.45
2018-04-01T04:32:57.044Z,7.25
2018-04-01T04:34:00.520Z,7.35
2018-04-01T04:35:03.227Z,6.85
2018-04-01T04:36:06.063Z,6.78
2018-04-01T04:37:09.571Z,6.37
2018-04-01T04:38:12.290Z,7.68
2018-04-01T04:39:15.010Z,7.37
2018-04-01T04:40:17.721Z,7.07
2018-04-01T04:41:20.460Z,7.20
2018-04-01T04:42:23.222Z,7.10
2018-04-01T04:43:25.933Z,6.97
2018-04-01T04:44:28.668Z,6.50
2018-04-01T04:45:31.373Z,6.80
2018-04-01T04:46:34.183Z,6.75
2018-04-01T04:47:37.667Z,6.95
2018-04-01T04:48:40.384Z,6.65
2018-04-01T04:49:43.107Z,6.60
2018-04-01T04:50:45.883Z,6.62
2018-04-01T04:51:49.366Z,6.40
2018-04-01T04:52:52.867Z,5.62
2018-04-01T04:53:56.361Z,6.82
2018-04-01T04:54:59.900Z,6.22
2018-04-01T04:56:02.596Z,6.90
2018-04-01T04:57:05.325Z,7.03
2018-04-01T04:58:08.796Z,5.65
2018-04-01T05:00:11.601Z,6.78
2018-04-01T05:01:14.316Z,6.05
2018-04-01T05:02:17.006Z,6.90
2018-04-01T05:03:19.767Z,7.18
2018-04-01T05:04:23.358Z,6.85
2018-04-01T05:05:26.837Z,6.45
2018-04-01T05:06:30.342Z,6.65
2018-04-01T05:07:33.052Z,6.03
2018-04-01T05:08:35.880Z,6.30
2018-04-01T05:09:39.472Z,6.05
2018-04-01T05:10:43.573Z,6.45
2018-04-01T05:11:47.063Z,6.20
2018-04-01T05:12:50.660Z,5.68
2018-04-01T05:13:54.140Z,6.20
2018-04-01T05:14:57.668Z,6.28
2018-04-01T05:16:00.361Z,6.05
2018-04-01T05:17:03.096Z,6.37
2018-04-01T05:18:05.822Z,5.75
2018-04-01T05:19:08.545Z,5.00
2018-04-01T05:20:11.262Z,5.68
2018-04-01T05:21:14.748Z,6.00
2018-04-01T05:22:17.456Z,6.78
2018-04-01T05:23:20.170Z,5.75
2018-04-01T05:24:22.903Z,5.72
2018-04-01T05:25:25.649Z,6.30
2018-04-01T05:26:28.362Z,5.40
2018-04-01T05:27:31.088Z,5.80
2018-04-01T05:28:34.586Z,7.10
2018-04-01T05:29:37.314Z,6.05
2018-04-01T05:30:40.024Z,6.28
2018-04-01T05:31:43.514Z,4.87
2018-04-01T05:32:47.225Z,5.50
2018-04-01T05:33:49.976Z,5.80
2018-04-01T05:34:53.456Z,6.43
2018-04-01T05:35:56.935Z,5.45
2018-04-01T05:36:59.648Z,5.30
2018-04-01T05:38:02.362Z,5.78
2018-04-01T05:39:05.089Z,5.70
2018-04-01T05:40:07.803Z,5.85
2018-04-01T05:41:10.516Z,6.72
2018-04-01T05:42:14.005Z,5.72
2018-04-01T05:43:17.501Z,5.25
2018-04-01T05:44:20.220Z,6.35
2018-04-01T05:45:22.977Z,6.45
2018-04-01T05:46:25.677Z,6.50
2018-04-01T05:47:28.432Z,5.95
2018-04-01T05:48:31.202Z,5.47
2018-04-01T05:49:33.921Z,6.28
2018-04-01T05:50:37.393Z,5.75
2018-04-01T05:51:40.931Z,6.45
2018-04-01T05:52:43.643Z,6.15
2018-04-01T05:53:46.361Z,5.70
2018-04-01T05:54:49.106Z,5.40
2018-04-01T05:55:52.641Z,5.97
2018-04-01T05:56:55.344Z,5.62
2018-04-01T05:57:58.074Z,5.90
2018-04-01T05:59:00.807Z,6.45
2018-04-01T06:00:04.305Z,6.37
2018-04-01T06:01:07.821Z,7.10
2018-04-01T06:02:10.524Z,6.10
2018-04-01T06:03:13.289Z,6.20
2018-04-01T06:04:16.015Z,6.68
2018-04-01T06:05:18.784Z,7.70
2018-04-01T06:06:21.562Z,5.95
2018-04-01T06:07:24.292Z,6.65
2018-04-01T06:08:27.022Z,6.72
2018-04-01T06:09:29.760Z,6.30
2018-04-01T06:10:32.471Z,6.32
2018-04-01T06:11:35.228Z,6.53
2018-04-01T06:12:37.956Z,6.80
2018-04-01T06:13:41.452Z,6.45
2018-04-01T06:14:44.200Z,7.93
2018-04-01T06:15:46.944Z,6.95
2018-04-01T06:16:49.653Z,7.47
2018-04-01T06:17:52.459Z,6.85
2018-04-01T06:18:55.934Z,7.78
2018-04-01T06:19:59.410Z,7.03
2018-04-01T06:21:02.931Z,7.53
2018-04-01T06:22:05.641Z,7.10
2018-04-01T06:23:08.371Z,6.50
2018-04-01T06:24:11.088Z,7.40
2018-04-01T06:25:13.806Z,7.87
2018-04-01T06:26:16.535Z,8.65
2018-04-01T06:27:19.335Z,8.10
2018-04-01T06:28:22.827Z,7.62
2018-04-01T06:29:26.316Z,7.50
2018-04-01T06:30:29.818Z,7.80
2018-04-01T06:31:32.533Z,6.82
2018-04-01T06:32:35.306Z,7.25
2018-04-01T06:33:38.025Z,7.35
2018-04-01T06:34:40.741Z,7.70
2018-04-01T06:35:43.548Z,7.10
2018-04-01T06:36:47.040Z,8.18
2018-04-01T06:37:50.534Z,8.13
2018-04-01T06:38:54.056Z,8.02
2018-04-01T06:39:57.574Z,9.65
2018-04-01T06:41:00.995Z,7.80
2018-04-01T06:42:03.719Z,8.48
2018-04-01T06:43:06.438Z,8.52
2018-04-01T06:44:09.216Z,8.15
2018-04-01T06:45:12.709Z,8.75
2018-04-01T06:46:16.205Z,9.10
2018-04-01T06:47:19.006Z,9.88
2018-04-01T06:48:21.724Z,9.10
2018-04-01T06:49:24.513Z,8.40
2018-04-01T06:50:27.981Z,8.85
2018-04-01T06:51:30.718Z,8.90
2018-04-01T06:52:33.423Z,9.75
2018-04-01T06:53:36.146Z,10.00
2018-04-01T06:54:38.913Z,7.85
2018-04-01T06:55:41.653Z,9.27
2018-04-01T06:56:45.253Z,9.35
2018-04-01T06:57:48.736Z,10.30
2018-04-01T06:58:52.236Z,9.25
2018-04-01T06:59:55.710Z,9.55
2018-04-01T07:00:59.213Z,9.77
2018-04-01T07:02:02.694Z,9.23
2018-04-01T07:03:06.186Z,10.02
2018-04-01T07:04:09.672Z,9.70
2018-04-01T07:05:13.184Z,9.52
2018-04-01T07:06:15.935Z,9.95
2018-04-01T07:07:19.423Z,10.52
2018-04-01T07:08:22.319Z,12.18
2018-04-01T07:09:25.040Z,10.70
2018-04-01T07:10:27.761Z,10.25
2018-04-01T07:11:30.505Z,9.93
2018-04-01T07:12:33.984Z,10.55
2018-04-01T07:13:37.474Z,11.05
2018-04-01T07:14:40.983Z,10.00
2018-04-01T07:15:43.709Z,10.93
2018-04-01T07:16:46.420Z,10.32
2018-04-01T07:17:49.168Z,10.52
2018-04-01T07:18:51.948Z,9.68
2018-04-01T07:19:55.422Z,10.30
2018-04-01T07:20:58.140Z,9.98
2018-04-01T07:22:00.865Z,9.20
2018-04-01T07:23:03.583Z,10.07
2018-04-01T07:24:06.312Z,9.73
2018-04-01T07:25:09.029Z,9.57
2018-04-01T07:26:11.770Z,9.23
2018-04-01T07:27:15.255Z,9.05
2018-04-01T07:28:18.807Z,9.98
2018-04-01T07:29:21.577Z,8.73
2018-04-01T07:30:24.289Z,10.05
2018-04-01T07:31:27.036Z,9.40
2018-04-01T07:32:29.721Z,9.05
2018-04-01T07:33:32.428Z,8.05
2018-04-01T07:34:35.130Z,8.07
2018-04-01T07:35:37.867Z,8.77
2018-04-01T07:36:40.594Z,9.15
2018-04-01T07:37:44.068Z,7.30
2018-04-01T07:38:46.783Z,7.53
2018-04-01T07:39:50.270Z,8.05
2018-04-01T07:40:53.752Z,7.72
2018-04-01T07:41:57.278Z,7.22
2018-04-01T07:43:00.766Z,7.12
2018-04-01T07:44:03.504Z,6.45
2018-04-01T07:45:07.005Z,9.38
2018-04-01T07:46:09.713Z,7.00
2018-04-01T07:47:12.440Z,6.18
2018-04-01T07:48:15.472Z,6.93
2018-04-01T07:49:18.191Z,7.03
2018-04-01T07:50:20.909Z,6.10
2018-04-01T07:51:23.632Z,6.53
2018-04-01T07:52:27.104Z,6.32
2018-04-01T07:53:30.611Z,6.37
2018-04-01T07:54:34.069Z,6.70
2018-04-01T07:55:36.800Z,6.10
2018-04-01T07:56:39.508Z,5.72
2018-04-01T07:57:42.235Z,5.75
2018-04-01T07:58:44.948Z,5.75
2018-04-01T07:59:47.673Z,5.85
2018-04-01T08:00:50.388Z,7.00
2018-04-01T08:01:53.107Z,5.65
2018-04-01T08:02:55.854Z,5.60
2018-04-01T08:03:59.329Z,5.95
2018-04-01T08:05:02.065Z,5.18
2018-04-01T08:06:04.804Z,4.55
2018-04-01T08:07:08.525Z,5.37
2018-04-01T08:08:11.299Z,4.80
2018-04-01T08:09:14.008Z,4.60
2018-04-01T08:10:16.722Z,4.37
2018-04-01T08:11:19.495Z,4.25
2018-04-01T08:12:22.178Z,4.07
2018-04-01T08:13:24.914Z,4.07
2018-04-01T08:14:27.637Z,3.97
2018-04-01T08:15:30.353Z,3.90
2018-04-01T08:16:33.872Z,4.00
2018-04-01T08:17:36.593Z,3.40
2018-04-01T08:18:39.313Z,3.90
2018-04-01T08:19:42.022Z,3.72
2018-04-01T08:20:44.757Z,3.80
2018-04-01T08:21:47.487Z,3.65
2018-04-01T08:22:50.964Z,3.33
2018-04-01T08:23:53.685Z,3.53
2018-04-01T08:24:56.427Z,2.90
2018-04-01T08:25:59.143Z,3.08
2018-04-01T08:27:01.858Z,4.00
2018-04-01T08:28:05.343Z,3.47
2018-04-01T08:29:08.085Z,2.62
2018-04-01T08:30:10.900Z,2.70
2018-04-01T08:31:13.641Z,2.50
2018-04-01T08:32:16.366Z,2.40
2018-04-01T08:33:19.120Z,2.45
2018-04-01T08:34:22.451Z,2.47
2018-04-01T08:35:25.176Z,1.80
2018-04-01T08:36:28.640Z,2.33
2018-04-01T08:37:32.132Z,2.00
2018-04-01T08:38:34.873Z,2.10
2018-04-01T08:39:37.587Z,1.80
2018-04-01T08:40:41.092Z,2.42
2018-04-01T08:41:43.817Z,1.83
2018-04-01T08:42:46.562Z,2.00
2018-04-01T08:43:49.298Z,2.12
2018-04-01T08:44:52.018Z,2.45
2018-04-01T08:45:54.720Z,2.45
2018-04-01T08:46:58.208Z,2.30
2018-04-01T08:48:01.694Z,1.90
2018-04-01T08:49:04.436Z,2.50
2018-04-01T08:50:07.147Z,1.87
2018-04-01T08:51:10.748Z,2.12
2018-04-01T08:52:14.250Z,1.60
2018-04-01T08:53:17.022Z,1.98
2018-04-01T08:54:19.698Z,2.37
2018-04-01T08:55:22.416Z,1.87
2018-04-01T08:56:25.148Z,2.75
2018-04-01T08:57:27.877Z,2.15
2018-04-01T08:58:31.361Z,2.60
2018-04-01T08:59:34.874Z,2.53
2018-04-01T09:00:38.347Z,2.80
2018-04-01T09:01:41.845Z,2.65
2018-04-01T09:02:45.334Z,2.80
2018-04-01T09:03:48.933Z,2.12
2018-04-01T09:04:51.692Z,2.53
2018-04-01T09:05:54.418Z,2.40
2018-04-01T09:06:57.141Z,1.80
2018-04-01T09:07:59.946Z,3.08
2018-04-01T09:09:02.655Z,2.65
2018-04-01T09:10:05.381Z,2.22
2018-04-01T09:11:08.095Z,2.40
2018-04-01T09:12:10.896Z,2.60
2018-04-01T09:13:13.624Z,2.87
2018-04-01T09:14:16.346Z,2.42
2018-04-01T09:15:19.058Z,2.40
2018-04-01T09:16:21.780Z,2.53
2018-04-01T09:17:24.500Z,2.70
2018-04-01T09:18:27.224Z,3.12
2018-04-01T09:19:29.938Z,2.60
2018-04-01T09:20:32.665Z,2.80
2018-04-01T09:21:35.380Z,2.42
2018-04-01T09:22:38.196Z,2.60
2018-04-01T09:23:41.664Z,2.42
2018-04-01T09:24:44.377Z,2.75
2018-04-01T09:25:47.116Z,2.55
2018-04-01T09:26:51.367Z,2.08
2018-04-01T09:27:54.107Z,2.55
2018-04-01T09:28:57.593Z,2.62
2018-04-01T09:30:01.089Z,2.50
2018-04-01T09:31:03.801Z,2.22
2018-04-01T09:32:06.523Z,2.80
2018-04-01T09:33:10.016Z,2.25
2018-04-01T09:34:13.494Z,2.78
2018-04-01T09:35:17.001Z,2.25
2018-04-01T09:36:19.720Z,2.53
2018-04-01T09:37:22.436Z,2.22
2018-04-01T09:38:25.157Z,2.33
2018-04-01T09:39:27.877Z,3.00
2018-04-01T09:40:31.462Z,2.47
2018-04-01T09:41:34.991Z,3.35
2018-04-01T09:42:37.705Z,2.65
2018-04-01T09:43:40.428Z,2.35
2018-04-01T09:44:43.151Z,2.55
2018-04-01T09:45:45.983Z,2.20
2018-04-01T09:46:48.692Z,2.22
2018-04-01T09:47:51.420Z,2.37
2018-04-01T09:48:54.145Z,1.98
2018-04-01T09:49:57.693Z,2.25
2018-04-01T09:51:01.112Z,2.62
2018-04-01T09:52:03.829Z,2.05
2018-04-01T09:53:06.573Z,2.40
2018-04-01T09:54:10.060Z,2.03
2018-04-01T09:55:13.557Z,1.50
2018-04-01T09:56:17.183Z,1.80
2018-04-01T09:57:20.731Z,2.45
2018-04-01T09:58:24.216Z,2.50
2018-04-01T09:59:27.709Z,3.30
2018-04-01T10:00:31.672Z,2.40
2018-04-01T10:01:34.883Z,3.08
2018-04-01T10:02:38.877Z,2.28
2018-04-01T10:03:42.907Z,2.85
2018-04-01T10:04:46.113Z,2.62
2018-04-01T10:05:49.343Z,2.58
2018-04-01T10:06:52.553Z,2.35
2018-04-01T10:07:55.758Z,2.15
2018-04-01T10:08:59.003Z,3.15
2018-04-01T10:10:02.997Z,2.00
2018-04-01T10:11:07.008Z,2.33
2018-04-01T10:12:10.222Z,2.12
2018-04-01T10:13:13.431Z,2.72
2018-04-01T10:14:16.638Z,2.40
2018-04-01T10:15:20.608Z,2.55
2018-04-01T10:16:23.849Z,2.40
2018-04-01T10:17:27.067Z,2.78
2018-04-01T10:18:30.320Z,2.60
2018-04-01T10:19:33.575Z,2.67
2018-04-01T10:20:37.565Z,2.58
2018-04-01T10:21:40.788Z,2.22
2018-04-01T10:22:44.052Z,2.80
2018-04-01T10:23:48.050Z,2.12
2018-04-01T10:24:52.048Z,2.80
2018-04-01T10:25:56.017Z,2.72
2018-04-01T10:26:59.222Z,2.40
2018-04-01T10:28:03.198Z,2.00
2018-04-01T10:29:06.421Z,2.95
2018-04-01T10:30:10.385Z,2.60
2018-04-01T10:31:13.597Z,2.78
2018-04-01T10:32:17.572Z,2.60
2018-04-01T10:33:20.776Z,2.40
2018-04-01T10:34:24.750Z,2.83
2018-04-01T10:35:27.963Z,3.42
2018-04-01T10:36:31.958Z,3.08
2018-04-01T10:37:35.967Z,2.67
2018-04-01T10:38:39.966Z,2.83
2018-04-01T10:39:43.965Z,2.17
2018-04-01T10:40:47.969Z,2.55
2018-04-01T10:41:51.955Z,1.90
2018-04-01T10:42:55.159Z,2.92
2018-04-01T10:43:58.378Z,2.90
2018-04-01T10:45:01.592Z,2.30
2018-04-01T10:46:04.789Z,1.98
2018-04-01T10:47:08.792Z,2.60
2018-04-01T10:48:12.020Z,2.70
2018-04-01T10:49:15.216Z,2.60
2018-04-01T10:50:18.453Z,2.75
2018-04-01T10:51:21.681Z,2.03
2018-04-01T10:52:24.917Z,2.65
2018-04-01T10:53:28.903Z,2.22
2018-04-01T10:54:32.380Z,2.67
2018-04-01T10:55:35.118Z,2.35
2018-04-01T10:56:37.822Z,2.30
2018-04-01T10:57:40.541Z,2.80
2018-04-01T10:59:52.402Z,2.72
2018-04-01T11:00:55.984Z,3.00
2018-04-01T11:01:59.496Z,2.30
2018-04-01T11:03:02.217Z,2.67
2018-04-01T11:04:04.952Z,2.70
2018-04-01T11:05:07.724Z,2.45
2018-04-01T11:06:10.429Z,2.60
2018-04-01T11:07:13.161Z,3.05
2018-04-01T11:08:15.909Z,2.30
2018-04-01T11:09:19.381Z,2.50
2018-04-01T11:10:22.108Z,2.55
2018-04-01T11:11:24.870Z,2.42
2018-04-01T11:12:28.344Z,2.10
2018-04-01T11:13:31.835Z,2.50
2018-04-01T11:14:34.572Z,1.75
2018-04-01T11:15:37.323Z,2.40
2018-04-01T11:16:40.036Z,2.30
2018-04-01T11:17:42.813Z,2.40
2018-04-01T11:18:45.526Z,2.40
2018-04-01T11:19:48.280Z,2.85
2018-04-01T11:20:50.989Z,2.10
2018-04-01T11:21:53.709Z,2.60
2018-04-01T11:22:56.423Z,2.50
2018-04-01T11:23:59.135Z,2.30
2018-04-01T11:25:01.848Z,2.40
2018-04-01T11:26:04.595Z,2.33
2018-04-01T11:27:08.059Z,2.45
2018-04-01T11:28:10.780Z,2.30
2018-04-01T11:29:13.498Z,2.37
2018-04-01T11:30:16.978Z,2.40
2018-04-01T11:31:19.731Z,1.80
2018-04-01T11:32:22.404Z,2.33
2018-04-01T11:33:25.136Z,1.98
2018-04-01T11:34:27.889Z,2.22
2018-04-01T11:35:30.636Z,2.12
2018-04-01T11:36:33.324Z,2.00
2018-04-01T11:37:36.048Z,2.30
2018-04-01T11:38:38.788Z,1.98
2018-04-01T11:39:41.510Z,2.20
2018-04-01T11:40:45.029Z,2.05
2018-04-01T11:41:48.499Z,2.28
2018-04-01T11:42:51.984Z,2.47
2018-04-01T11:43:55.489Z,2.35
2018-04-01T11:44:58.972Z,1.80
2018-04-01T11:46:02.439Z,2.35
2018-04-01T11:47:05.155Z,2.70
2018-04-01T11:48:07.875Z,2.03
2018-04-01T11:49:10.676Z,1.95
2018-04-01T11:50:13.436Z,2.20
2018-04-01T11:51:17.028Z,1.90
2018-04-01T11:52:20.531Z,2.15
2018-04-01T11:53:24.014Z,2.40
2018-04-01T11:54:27.620Z,2.17
2018-04-01T11:55:30.342Z,1.95
2018-04-01T11:56:33.061Z,1.85
2018-04-01T11:57:35.834Z,2.15
2018-04-01T11:58:38.548Z,2.10
2018-04-01T11:59:41.272Z,1.73
2018-04-01T12:00:44.006Z,2.00
2018-04-01T12:01:46.735Z,2.00
2018-04-01T12:02:49.630Z,2.20
2018-04-01T12:03:53.069Z,1.65
2018-04-01T12:04:55.857Z,1.98
2018-04-01T12:05:58.561Z,2.00
2018-04-01T12:07:01.369Z,1.75
2018-04-01T12:08:04.878Z,2.20
2018-04-01T12:09:07.648Z,2.03
2018-04-01T12:10:10.373Z,1.92
2018-04-01T12:11:13.092Z,2.10
2018-04-01T12:12:16.255Z,1.70
2018-04-01T12:13:19.732Z,1.50
2018-04-01T12:14:22.481Z,1.35
2018-04-01T12:15:25.196Z,1.60
2018-04-01T12:16:27.907Z,1.48
2018-04-01T12:17:30.620Z,1.70
2018-04-01T12:18:34.116Z,1.90
2018-04-01T12:19:37.598Z,1.70
2018-04-01T12:20:40.344Z,1.90
2018-04-01T12:21:43.053Z,1.70
2018-04-01T12:22:46.518Z,1.65
2018-04-01T12:23:49.277Z,1.80
2018-04-01T12:24:52.013Z,1.58
2018-04-01T12:25:54.708Z,1.50
2018-04-01T12:26:57.457Z,1.85
2018-04-01T12:28:00.157Z,1.55
2018-04-01T12:29:02.869Z,1.52
2018-04-01T12:30:06.342Z,1.00
2018-04-01T12:31:09.823Z,1.30
2018-04-01T12:32:12.552Z,1.25
2018-04-01T12:33:15.263Z,1.10
2018-04-01T12:34:17.989Z,0.80
2018-04-01T12:35:20.700Z,0.70
2018-04-01T12:36:23.416Z,0.70
2018-04-01T12:37:26.137Z,0.80
2018-04-01T12:38:28.861Z,0.80
2018-04-01T12:39:31.610Z,0.75
2018-04-01T12:40:35.113Z,1.05
2018-04-01T12:41:37.826Z,0.68
2018-04-01T12:42:40.552Z,0.80
2018-04-01T12:43:43.281Z,0.80
2018-04-01T12:44:46.081Z,1.10
2018-04-01T12:45:49.560Z,0.98
2018-04-01T12:46:53.051Z,0.57
2018-04-01T12:47:56.572Z,0.82
2018-04-01T12:48:59.344Z,0.90
2018-04-01T12:50:02.052Z,0.77
2018-04-01T12:51:04.885Z,1.05
2018-04-01T12:52:07.585Z,1.05
2018-04-01T12:53:10.314Z,0.88
2018-04-01T12:54:13.798Z,1.10
2018-04-01T12:55:17.289Z,1.20
2018-04-01T12:56:20.894Z,0.70
2018-04-01T12:57:24.362Z,0.80
2018-04-01T12:58:27.144Z,1.20
2018-04-01T12:59:29.863Z,1.00
2018-04-01T13:00:32.584Z,0.93
2018-04-01T13:01:35.306Z,1.10
2018-04-01T13:02:38.019Z,1.00
2018-04-01T13:03:41.491Z,0.85
2018-04-01T13:04:44.272Z,1.05
2018-04-01T13:05:47.756Z,0.93
2018-04-01T13:06:51.237Z,1.12
2018-04-01T13:07:53.952Z,1.45
2018-04-01T13:08:56.676Z,1.00
2018-04-01T13:09:59.384Z,1.00
2018-04-01T13:11:02.102Z,0.90
2018-04-01T13:12:04.880Z,1.00
2018-04-01T13:13:07.563Z,1.20
2018-04-01T13:14:10.292Z,0.95
2018-04-01T13:15:13.017Z,0.85
2018-04-01T13:16:16.503Z,1.02
2018-04-01T13:17:19.984Z,1.10
2018-04-01T13:18:23.484Z,0.95
2018-04-01T13:19:26.959Z,1.40
2018-04-01T13:20:29.687Z,1.30
2018-04-01T13:21:32.466Z,1.10
2018-04-01T13:22:35.180Z,1.40
2018-04-01T13:23:38.670Z,1.30
2018-04-01T13:24:42.182Z,1.12
2018-04-01T13:25:45.648Z,1.00
2018-04-01T13:26:49.123Z,0.90
2018-04-01T13:27:53.349Z,0.85
2018-04-01T13:28:56.825Z,0.70
2018-04-01T13:30:00.308Z,0.70
2018-04-01T13:31:03.052Z,0.93
2018-04-01T13:32:05.801Z,0.75
2018-04-01T13:33:08.528Z,1.00
2018-04-01T13:34:12.064Z,0.90
2018-04-01T13:35:14.760Z,1.00
2018-04-01T13:36:17.494Z,1.30
2018-04-01T13:37:20.246Z,1.70
2018-04-01T13:38:23.744Z,1.50
2018-04-01T13:39:26.459Z,1.50
2018-04-01T13:40:29.166Z,1.50
2018-04-01T13:41:32.638Z,1.25
2018-04-01T13:42:36.059Z,1.60
2018-04-01T13:43:38.779Z,0.80
2018-04-01T13:44:41.522Z,1.00
2018-04-01T13:45:44.223Z,0.90
2018-04-01T13:46:47.029Z,1.02
2018-04-01T13:47:50.530Z,1.08
2018-04-01T13:48:54.010Z,0.85
2018-04-01T13:49:57.491Z,1.10
2018-04-01T13:51:00.960Z,0.50
2018-04-01T13:52:03.684Z,0.50
2018-04-01T13:53:06.488Z,0.60
2018-04-01T13:54:09.164Z,1.20
2018-04-01T13:55:12.066Z,0.93
2018-04-01T13:56:14.807Z,1.00
2018-04-01T13:57:17.514Z,0.70
2018-04-01T13:58:20.249Z,0.95
2018-04-01T13:59:22.970Z,1.08
2018-04-01T14:00:25.725Z,1.10